Time;durP1;ratioP1;P1;durP2;ratioP2;P2;SDS_P1;SDS_P2;PMS_P1;PMS_P2;Temp;Humidity;BMP_temperature;BMP_pressure;BME280_temperature;BME280_humidity;BME280_pressure;Samples;Min_cycle;Max_cycle;Signal;HPM_P1;HPM_P2
2023/05/27 00:00:10;;;;;;;30.13;5.88;;;;;;;13.07;90.90;102509.31;5076589;28;20043;-66
2023/05/27 00:02:35;;;;;;;39.00;6.00;;;;;;;13.20;91.31;102539.34;5058897;28;20054;-66
2023/05/27 00:05:02;;;;;;;36.63;5.85;;;;;;;13.26;91.47;102532.44;5059019;28;20029;-65
2023/05/27 00:07:27;;;;;;;35.90;6.25;;;;;;;13.11;91.31;102498.00;5059748;28;20036;-66
2023/05/27 00:09:54;;;;;;;35.55;6.13;;;;;;;13.22;91.78;102507.59;5095838;28;20025;-65
2023/05/27 00:12:20;;;;;;;35.00;6.80;;;;;;;13.27;92.22;102520.59;5079027;28;20387;-66
2023/05/27 00:14:45;;;;;;;34.80;5.72;;;;;;;13.30;92.11;102520.25;5096769;28;20024;-66
2023/05/27 00:17:14;;;;;;;27.67;5.55;;;;;;;13.29;92.39;102516.72;5079208;28;20115;-66
2023/05/27 00:19:40;;;;;;;31.13;5.85;;;;;;;13.20;92.52;102520.44;5095598;28;20046;-75
2023/05/27 00:22:06;;;;;;;31.98;5.82;;;;;;;12.81;92.32;102504.16;5074061;28;20036;-65
2023/05/27 00:24:35;;;;;;;20.70;4.38;;;;;;;12.80;92.59;102529.50;5087215;28;20093;-66
2023/05/27 00:27:02;;;;;;;29.33;5.88;;;;;;;12.48;94.71;102528.50;5077280;28;20033;-65
2023/05/27 00:29:28;;;;;;;28.92;5.47;;;;;;;12.27;96.96;102506.59;5076824;28;20082;-66
2023/05/27 00:31:53;;;;;;;34.03;6.72;;;;;;;12.34;96.79;102521.94;5076460;28;20029;-66
2023/05/27 00:34:19;;;;;;;36.95;6.82;;;;;;;12.47;96.11;102532.22;5077920;28;20365;-66
2023/05/27 00:36:45;;;;;;;27.33;5.75;;;;;;;12.57;94.56;102529.34;5077358;28;20024;-66
2023/05/27 00:39:10;;;;;;;29.83;5.50;;;;;;;12.58;94.04;102521.09;5059647;28;20032;-66
2023/05/27 00:41:36;;;;;;;30.65;5.13;;;;;;;12.61;93.58;102530.69;5059512;28;20041;-66
2023/05/27 00:44:02;;;;;;;32.20;5.60;;;;;;;12.61;93.21;102519.88;5058003;28;20028;-66
2023/05/27 00:46:27;;;;;;;35.17;6.47;;;;;;;12.60;93.12;102521.75;5058296;28;20029;-65
2023/05/27 00:48:54;;;;;;;29.90;5.55;;;;;;;12.50;93.07;102506.75;5058355;28;20501;-65
2023/05/27 00:51:20;;;;;;;26.05;5.10;;;;;;;12.59;93.12;102513.84;5077213;28;20033;-65
2023/05/27 00:53:46;;;;;;;30.60;5.57;;;;;;;12.61;93.39;102509.09;5076129;28;20017;-66
2023/05/27 00:56:15;;;;;;;32.08;6.05;;;;;;;12.65;93.54;102519.41;5059175;28;20384;-66
2023/05/27 00:58:41;;;;;;;32.97;5.03;;;;;;;12.58;93.46;102518.41;5076409;28;20111;-66
2023/05/27 01:01:07;;;;;;;26.30;5.38;;;;;;;12.49;93.40;102522.13;5058816;28;20048;-66
2023/05/27 01:03:34;;;;;;;26.65;5.13;;;;;;;12.36;93.56;102513.69;5076435;28;20039;-66
2023/05/27 01:06:28;;;;;;;23.85;5.20;;;;;;;12.26;93.52;102499.50;5075290;28;20035;-65
2023/05/27 01:09:04;;;;;;;23.52;4.88;;;;;;;12.29;93.60;102499.19;5076270;28;20012;-66
2023/05/27 01:11:53;;;;;;;28.42;5.13;;;;;;;12.37;93.26;102491.91;5076669;28;20040;-66
2023/05/27 01:14:23;;;;;;;29.63;6.00;;;;;;;12.38;93.15;102506.25;5076143;28;20090;-66
2023/05/27 01:16:51;;;;;;;36.72;5.10;;;;;;;12.41;93.72;102498.63;5058256;28;20024;-66
2023/05/27 01:19:42;;;;;;;27.00;5.55;;;;;;;12.50;94.11;102501.34;5057818;28;20116;-66
2023/05/27 01:22:11;;;;;;;32.83;6.03;;;;;;;12.53;93.90;102495.59;5060478;28;20016;-66
2023/05/27 01:24:37;;;;;;;30.70;6.05;;;;;;;12.53;93.97;102495.59;5080528;28;20032;-65
2023/05/27 01:27:02;;;;;;;29.70;5.25;;;;;;;12.56;93.93;102498.81;5061560;28;20086;-66
2023/05/27 01:29:29;;;;;;;28.55;5.47;;;;;;;12.48;93.92;102461.00;5080475;28;20020;-66
2023/05/27 01:31:55;;;;;;;31.58;5.20;;;;;;;12.75;94.07;102494.91;5079531;28;20336;-66
2023/05/27 01:34:28;;;;;;;27.60;5.28;;;;;;;12.73;94.50;102474.47;5063066;28;20029;-66
2023/05/27 01:36:58;;;;;;;25.50;5.13;;;;;;;12.76;94.82;102487.63;5080431;28;20056;-66
2023/05/27 01:39:25;;;;;;;25.60;5.00;;;;;;;12.67;94.84;102500.31;5080821;28;20043;-71
2023/05/27 01:41:52;;;;;;;23.00;4.55;;;;;;;12.51;94.90;102489.53;5061367;28;20172;-65
2023/05/27 01:44:19;;;;;;;29.90;5.55;;;;;;;12.44;95.15;102492.91;5079840;28;20028;-65
2023/05/27 01:46:45;;;;;;;26.63;5.28;;;;;;;12.42;94.97;102500.34;5060558;28;20020;-66
2023/05/27 01:49:10;;;;;;;29.60;6.10;;;;;;;12.43;95.04;102474.19;5080264;28;20086;-65
2023/05/27 01:51:36;;;;;;;26.27;5.05;;;;;;;12.64;95.12;102489.84;5061672;28;20447;-65
2023/05/27 01:54:02;;;;;;;28.35;6.45;;;;;;;12.65;95.41;102478.06;5080065;28;20026;-65
2023/05/27 01:56:29;;;;;;;29.00;5.20;;;;;;;12.68;95.59;102480.38;5061852;28;20115;-65
2023/05/27 01:58:54;;;;;;;24.40;5.80;;;;;;;12.62;95.57;102495.44;5079814;28;20033;-66
2023/05/27 02:01:21;;;;;;;29.48;5.40;;;;;;;12.50;95.50;102502.19;5060970;28;20182;-66
2023/05/27 02:03:47;;;;;;;25.55;5.15;;;;;;;12.39;95.71;102505.25;5079096;28;20036;-65
2023/05/27 02:06:12;;;;;;;29.77;5.22;;;;;;;12.40;95.60;102490.72;5061790;28;20029;-66
2023/05/27 02:08:38;;;;;;;26.27;5.30;;;;;;;12.32;95.84;102459.19;5062031;28;20025;-65
2023/05/27 02:11:05;;;;;;;29.48;5.78;;;;;;;12.59;95.54;102484.97;5062333;28;20028;-65
2023/05/27 02:13:30;;;;;;;29.50;5.90;;;;;;;12.58;95.61;102480.59;5079111;28;20032;-67
2023/05/27 02:15:56;;;;;;;27.52;5.25;;;;;;;12.55;95.92;102486.34;5061815;28;20491;-67
2023/05/27 02:18:21;;;;;;;26.48;4.80;;;;;;;12.47;96.16;102499.81;5060542;28;20037;-66
2023/05/27 02:20:47;;;;;;;25.35;5.20;;;;;;;12.26;95.74;102483.31;5078962;28;20062;-65
2023/05/27 02:23:12;;;;;;;29.25;5.60;;;;;;;12.38;96.09;102503.53;5080084;28;20035;-66
2023/05/27 02:25:38;;;;;;;21.63;4.35;;;;;;;12.33;95.84;102470.81;5061987;28;20079;-65
2023/05/27 02:28:03;;;;;;;22.27;4.80;;;;;;;12.54;96.42;102495.44;5061691;28;20052;-66
2023/05/27 02:30:30;;;;;;;23.45;5.15;;;;;;;12.54;96.29;102490.03;5079435;28;20479;-66
2023/05/27 02:32:57;;;;;;;22.70;4.65;;;;;;;12.29;96.13;102442.50;5078950;28;20021;-66
2023/05/27 02:35:22;;;;;;;28.15;4.72;;;;;;;12.50;96.30;102490.56;5061398;28;20024;-66
2023/05/27 02:37:48;;;;;;;20.42;4.90;;;;;;;12.45;96.25;102472.19;5061571;28;20051;-65
2023/05/27 02:40:24;;;;;;;22.98;4.32;;;;;;;12.53;96.38;102482.94;5061125;28;20096;-65
2023/05/27 02:42:49;;;;;;;21.02;4.72;;;;;;;12.54;96.25;102470.28;5079252;28;20085;-66
2023/05/27 02:45:15;;;;;;;20.35;4.80;;;;;;;12.60;96.40;102477.72;5060603;28;20459;-67
2023/05/27 02:47:40;;;;;;;22.35;4.90;;;;;;;12.70;96.22;102487.28;5026678;28;20040;-70
2023/05/27 02:50:06;;;;;;;22.60;4.40;;;;;;;12.76;96.06;102488.47;5075051;28;20024;-66
2023/05/27 02:52:32;;;;;;;24.15;4.40;;;;;;;12.84;95.80;102484.91;5077041;28;20024;-66
2023/05/27 02:54:57;;;;;;;23.13;5.05;;;;;;;12.90;95.70;102476.94;5044238;28;20086;-66
2023/05/27 02:57:23;;;;;;;19.23;4.60;;;;;;;13.05;95.26;102482.50;5060279;28;20032;-66
2023/05/27 02:59:48;;;;;;;19.45;4.53;;;;;;;13.05;94.96;102487.91;5078359;28;20029;-65
2023/05/27 03:02:14;;;;;;;22.85;4.32;;;;;;;12.89;94.64;102450.97;5060408;28;20053;-66
2023/05/27 03:04:40;;;;;;;20.85;4.05;;;;;;;13.44;93.31;102478.94;5078564;28;20071;-65
2023/05/27 03:07:05;;;;;;;16.60;3.80;;;;;;;13.75;92.25;102472.69;5058142;28;20058;-65
2023/05/27 03:09:31;;;;;;;22.92;4.20;;;;;;;13.96;92.08;102472.03;5062471;28;20040;-66
2023/05/27 03:11:56;;;;;;;18.13;4.32;;;;;;;14.22;92.20;102471.66;5061966;28;20032;-70
2023/05/27 03:14:22;;;;;;;26.55;4.45;;;;;;;14.52;91.36;102472.59;5060558;28;20017;-66
2023/05/27 03:16:47;;;;;;;15.93;5.03;;;;;;;14.79;89.61;102473.84;5060734;28;20033;-66
2023/05/27 03:19:12;;;;;;;21.08;4.32;;;;;;;14.77;89.28;102481.31;5079114;28;20095;-67
2023/05/27 03:21:38;;;;;;;15.38;3.80;;;;;;;14.89;89.42;102489.81;5059928;28;20030;-66
2023/05/27 03:24:03;;;;;;;17.25;3.85;;;;;;;15.08;88.90;102485.72;5077898;28;20060;-65
2023/05/27 03:26:29;;;;;;;21.85;4.53;;;;;;;15.37;87.77;102476.72;5078449;28;20037;-65
2023/05/27 03:28:54;;;;;;;16.80;3.67;;;;;;;15.71;86.90;102478.78;5060365;28;20041;-66
2023/05/27 03:31:20;;;;;;;23.48;3.80;;;;;;;15.83;85.55;102479.97;5078342;28;20020;-66
2023/05/27 03:33:45;;;;;;;19.83;4.32;;;;;;;16.08;85.52;102480.41;5077748;28;20021;-66
2023/05/27 03:36:11;;;;;;;19.00;3.92;;;;;;;16.33;84.53;102478.13;5078259;28;20024;-65
2023/05/27 03:38:36;;;;;;;19.40;4.10;;;;;;;16.53;83.98;102483.72;5078018;28;20028;-65
2023/05/27 03:41:01;;;;;;;18.65;3.60;;;;;;;16.79;82.97;102479.56;5077923;28;20036;-66
2023/05/27 03:43:27;;;;;;;13.70;3.45;;;;;;;17.03;81.60;102487.22;5077368;28;20059;-66
2023/05/27 03:45:52;;;;;;;16.17;3.65;;;;;;;17.23;80.50;102489.19;5059192;28;20040;-65
2023/05/27 03:48:18;;;;;;;17.48;3.35;;;;;;;17.40;79.62;102492.41;5059396;28;20051;-66
2023/05/27 03:50:43;;;;;;;16.67;3.58;;;;;;;17.47;78.82;102493.25;5076437;28;20120;-65
2023/05/27 03:53:09;;;;;;;18.52;3.58;;;;;;;17.80;78.14;102479.78;5059362;28;20174;-65
2023/05/27 03:55:34;;;;;;;14.38;3.75;;;;;;;17.92;77.47;102460.97;5042451;28;20082;-65
2023/05/27 03:57:59;;;;;;;18.98;4.00;;;;;;;18.16;76.75;102490.31;5026710;28;20028;-66
2023/05/27 04:00:25;;;;;;;15.15;3.55;;;;;;;18.27;76.36;102494.28;5076293;28;20111;-68
2023/05/27 04:02:50;;;;;;;12.70;3.05;;;;;;;18.36;75.89;102490.31;5042625;28;20043;-76
2023/05/27 04:05:16;;;;;;;13.38;3.35;;;;;;;18.50;75.07;102489.25;5059377;28;20637;-65
2023/05/27 04:07:42;;;;;;;17.05;2.97;;;;;;;18.76;74.54;102491.13;5077183;28;20529;-66
2023/05/27 04:10:08;;;;;;;12.60;3.03;;;;;;;18.99;73.78;102487.09;5077586;28;20031;-65
2023/05/27 04:12:33;;;;;;;14.18;3.10;;;;;;;19.43;73.03;102488.19;5077435;28;20100;-65
2023/05/27 04:14:58;;;;;;;14.20;3.30;;;;;;;19.67;71.95;102494.84;5059188;28;20037;-66
2023/05/27 04:17:24;;;;;;;15.68;3.13;;;;;;;19.98;71.12;102498.63;5058539;28;20063;-66
2023/05/27 04:19:49;;;;;;;15.30;3.17;;;;;;;20.26;70.41;102509.13;5059597;28;20028;-66
2023/05/27 04:22:15;;;;;;;14.60;3.05;;;;;;;20.43;69.47;102504.81;5076413;28;20078;-66
2023/05/27 04:24:40;;;;;;;13.95;3.25;;;;;;;20.28;69.79;102496.09;5076895;28;20043;-65
2023/05/27 04:27:06;;;;;;;13.43;2.90;;;;;;;20.37;69.31;102502.97;5076919;28;20088;-66
2023/05/27 04:29:33;;;;;;;11.57;2.83;;;;;;;20.67;68.19;102502.31;5076924;28;20411;-66
2023/05/27 04:31:58;;;;;;;11.15;3.00;;;;;;;20.92;67.33;102496.78;5072913;28;20031;-66
2023/05/27 04:34:24;;;;;;;16.30;3.20;;;;;;;21.04;66.53;102486.75;5058338;28;20456;-69
2023/05/27 04:36:49;;;;;;;13.48;3.28;;;;;;;21.22;66.09;102502.31;5076659;28;20020;-66
2023/05/27 04:39:18;;;;;;;12.90;3.25;;;;;;;21.25;66.19;102504.59;5042100;28;20028;-66
2023/05/27 04:41:44;;;;;;;14.30;2.97;;;;;;;21.13;65.68;102503.72;5076161;28;20037;-66
2023/05/27 04:44:11;;;;;;;9.38;2.65;;;;;;;21.21;65.47;102504.22;5058719;28;20109;-66
2023/05/27 04:46:38;;;;;;;10.63;3.05;;;;;;;21.67;64.30;102510.22;5076433;28;20032;-66
2023/05/27 04:49:04;;;;;;;10.63;3.00;;;;;;;22.05;63.62;102499.75;5059372;28;20058;-65
2023/05/27 04:51:30;;;;;;;13.35;2.72;;;;;;;22.26;62.80;102503.03;5059292;28;20123;-67
2023/05/27 04:53:56;;;;;;;9.65;2.60;;;;;;;22.36;62.37;102505.19;5074056;28;20028;-65
2023/05/27 04:56:21;;;;;;;11.25;2.70;;;;;;;22.17;62.13;102496.22;5057106;28;20171;-65
2023/05/27 04:58:48;;;;;;;11.73;2.50;;;;;;;21.93;62.33;102520.78;5062290;28;20087;-66
2023/05/27 05:01:17;;;;;;;12.52;2.40;;;;;;;21.80;63.02;102518.25;5064039;28;20289;-66
2023/05/27 05:03:52;;;;;;;11.40;2.35;;;;;;;21.91;63.24;102517.44;5079723;28;20091;-66
2023/05/27 05:06:22;;;;;;;11.00;2.40;;;;;;;22.21;62.58;102524.81;5063334;28;20395;-66
2023/05/27 05:08:48;;;;;;;10.65;2.70;;;;;;;22.19;62.45;102518.75;5080281;28;20024;-66
2023/05/27 05:11:14;;;;;;;8.45;2.70;;;;;;;22.13;62.24;102519.66;5045400;28;20028;-66
2023/05/27 05:13:40;;;;;;;10.52;2.38;;;;;;;21.75;62.79;102520.84;5069358;28;20046;-66
2023/05/27 05:16:06;;;;;;;7.40;2.58;;;;;;;21.71;63.40;102516.91;5082957;28;20028;-67
2023/05/27 05:18:31;;;;;;;9.68;2.80;;;;;;;22.05;62.57;102524.41;5082214;28;20031;-66
2023/05/27 05:20:56;;;;;;;10.23;2.38;;;;;;;22.23;62.05;102522.69;5100793;28;20128;-67
2023/05/27 05:23:22;;;;;;;7.38;2.20;;;;;;;22.37;61.78;102526.88;5081874;28;20077;-69
2023/05/27 05:25:54;;;;;;;7.63;2.28;;;;;;;22.17;61.87;102529.13;5099633;28;20394;-70
2023/05/27 05:28:19;;;;;;;10.65;2.35;;;;;;;21.82;62.33;102532.56;5082895;28;20398;-67
2023/05/27 05:30:45;;;;;;;10.13;2.17;;;;;;;21.55;62.67;102516.47;5103904;28;20031;-67
2023/05/27 05:33:10;;;;;;;9.90;2.10;;;;;;;21.60;62.41;102514.94;5091753;28;20032;-66
2023/05/27 05:35:36;;;;;;;9.10;2.03;;;;;;;21.85;62.15;102526.59;5084636;28;20024;-67
2023/05/27 05:38:01;;;;;;;8.88;1.90;;;;;;;21.76;61.81;102525.28;5059260;28;20028;-67
2023/05/27 05:40:26;;;;;;;9.48;2.17;;;;;;;21.49;62.08;102531.09;5083634;28;20327;-68
2023/05/27 05:42:52;;;;;;;8.77;2.22;;;;;;;21.25;62.48;102531.97;5062122;28;20039;-66
2023/05/27 05:45:17;;;;;;;7.78;2.17;;;;;;;20.95;62.85;102532.72;5061950;28;20028;-67
2023/05/27 05:47:43;;;;;;;10.60;1.70;;;;;;;20.52;63.66;102525.34;5058141;28;20036;-66
2023/05/27 05:50:09;;;;;;;7.65;2.03;;;;;;;20.35;63.88;102527.78;5061097;28;20353;-67
2023/05/27 05:52:34;;;;;;;9.45;2.45;;;;;;;20.16;64.17;102526.88;5077833;28;20024;-69
2023/05/27 05:54:59;;;;;;;8.75;2.67;;;;;;;20.15;64.13;102524.38;5059779;28;20505;-66
2023/05/27 05:57:25;;;;;;;9.63;2.40;;;;;;;20.27;64.50;102528.06;5058271;28;20058;-67
2023/05/27 05:59:50;;;;;;;6.70;2.30;;;;;;;20.10;63.78;102529.66;5062700;28;20033;-69
2023/05/27 06:02:16;;;;;;;10.57;3.00;;;;;;;20.02;64.54;102529.91;5079544;28;20052;-66
2023/05/27 06:04:41;;;;;;;11.65;2.95;;;;;;;19.97;64.99;102519.66;5046717;28;20111;-66
2023/05/27 06:07:07;;;;;;;10.85;2.90;;;;;;;19.65;64.96;102505.97;5046221;28;20029;-66
2023/05/27 06:09:32;;;;;;;10.80;2.90;;;;;;;19.70;65.18;102529.88;5061619;28;20039;-67
2023/05/27 06:11:58;;;;;;;10.32;2.60;;;;;;;19.74;65.15;102533.03;5062640;28;20043;-66
2023/05/27 06:14:23;;;;;;;11.10;2.88;;;;;;;19.82;64.79;102527.31;5065607;28;20038;-66
2023/05/27 06:16:49;;;;;;;12.60;2.97;;;;;;;19.98;63.99;102521.31;5070731;28;20029;-68
2023/05/27 06:19:14;;;;;;;6.97;2.03;;;;;;;20.13;63.36;102541.00;5062293;28;20062;-66
2023/05/27 06:21:40;;;;;;;10.63;2.38;;;;;;;20.06;62.90;102523.78;5045346;28;20033;-70
2023/05/27 06:24:06;;;;;;;9.07;2.22;;;;;;;20.10;62.95;102532.41;5042873;28;20039;-65
2023/05/27 06:26:31;;;;;;;7.88;2.17;;;;;;;20.01;62.06;102534.56;5058902;28;20039;-66
2023/05/27 06:28:56;;;;;;;8.63;2.42;;;;;;;19.99;61.54;102539.38;5044390;28;20040;-66
2023/05/27 06:31:22;;;;;;;8.55;2.10;;;;;;;20.10;61.02;102533.25;5060446;28;20039;-67
2023/05/27 06:33:48;;;;;;;13.65;2.53;;;;;;;19.83;61.35;102526.25;5059916;28;20020;-66
2023/05/27 06:36:13;;;;;;;9.95;2.30;;;;;;;19.69;61.77;102529.03;5044022;28;20507;-65
2023/05/27 06:38:39;;;;;;;6.88;2.08;;;;;;;19.81;61.72;102534.66;5043263;28;20416;-66
2023/05/27 06:41:04;;;;;;;9.23;2.08;;;;;;;19.67;61.38;102531.19;5061306;28;20029;-66
2023/05/27 06:43:29;;;;;;;7.70;2.15;;;;;;;19.51;60.99;102523.44;5099342;28;20076;-66
2023/05/27 06:45:55;;;;;;;11.77;2.90;;;;;;;19.64;61.06;102541.69;5081729;28;20036;-66
2023/05/27 06:48:20;;;;;;;7.93;1.83;;;;;;;19.63;60.62;102540.84;5082031;28;20387;-67
2023/05/27 06:50:46;;;;;;;7.47;2.38;;;;;;;19.60;60.68;102530.34;5099870;28;20111;-66
2023/05/27 06:53:13;;;;;;;7.43;2.55;;;;;;;19.63;60.69;102539.97;5101380;28;20031;-67
2023/05/27 06:55:38;;;;;;;9.68;2.45;;;;;;;19.44;60.74;102539.84;5082512;28;20055;-67
2023/05/27 06:58:03;;;;;;;10.77;2.63;;;;;;;19.46;60.74;102542.34;5066771;28;20089;-67
2023/05/27 07:00:29;;;;;;;11.75;2.95;;;;;;;19.59;60.69;102544.19;5099983;28;20101;-67
2023/05/27 07:02:55;;;;;;;8.93;2.47;;;;;;;19.60;60.23;102534.94;5078243;28;20505;-66
2023/05/27 07:05:20;;;;;;;8.88;2.38;;;;;;;19.44;60.43;102542.59;5050094;28;20036;-67
2023/05/27 07:07:46;;;;;;;10.00;2.30;;;;;;;19.36;60.41;102544.72;5109448;28;20056;-66
2023/05/27 07:10:11;;;;;;;7.25;2.25;;;;;;;19.45;60.73;102549.72;5090911;28;20020;-67
2023/05/27 07:12:37;;;;;;;7.65;2.15;;;;;;;19.29;59.98;102538.44;5106728;28;20036;-67
2023/05/27 07:15:03;;;;;;;8.07;2.33;;;;;;;19.42;59.38;102543.84;5104665;28;20544;-70
2023/05/27 07:17:28;;;;;;;6.97;1.88;;;;;;;19.77;58.00;102547.09;5081315;28;20059;-67
2023/05/27 07:19:53;;;;;;;10.32;2.65;;;;;;;19.80;57.74;102530.28;5081184;28;20415;-67
2023/05/27 07:22:19;;;;;;;7.15;1.95;;;;;;;19.76;58.01;102528.19;5082144;28;20050;-66
2023/05/27 07:24:45;;;;;;;10.63;2.47;;;;;;;19.78;58.72;102526.91;5100929;28;20111;-66
2023/05/27 07:27:10;;;;;;;9.10;2.63;;;;;;;19.97;58.50;102532.47;5101004;28;20063;-67
2023/05/27 07:29:36;;;;;;;11.27;2.97;;;;;;;19.86;57.52;102517.59;5065724;28;20024;-67
2023/05/27 07:32:01;;;;;;;11.30;2.78;;;;;;;19.96;57.53;102534.34;5101031;28;20055;-66
2023/05/27 07:34:27;;;;;;;8.75;2.88;;;;;;;19.67;57.81;102542.09;5065756;28;20028;-66
2023/05/27 07:36:52;;;;;;;12.65;2.80;;;;;;;19.41;58.07;102542.19;5082228;28;20032;-67
2023/05/27 07:39:17;;;;;;;9.77;2.83;;;;;;;19.23;58.54;102540.13;5082406;28;20028;-66
2023/05/27 07:41:43;;;;;;;10.05;3.13;;;;;;;19.09;58.71;102533.88;5083147;28;20037;-69
2023/05/27 07:44:08;;;;;;;11.20;3.10;;;;;;;19.27;59.04;102533.22;5084247;28;20032;-67
2023/05/27 07:46:34;;;;;;;12.05;3.20;;;;;;;19.45;57.77;102537.97;5085620;28;20032;-67
2023/05/27 07:48:59;;;;;;;13.23;2.72;;;;;;;19.31;57.21;102536.34;5082254;28;20028;-66
2023/05/27 07:51:25;;;;;;;14.20;3.10;;;;;;;19.16;56.39;102542.88;5081316;28;20028;-67
2023/05/27 07:53:51;;;;;;;10.45;2.80;;;;;;;19.32;54.64;102544.31;5080466;28;20032;-66
2023/05/27 07:56:16;;;;;;;12.73;2.88;;;;;;;19.30;54.22;102540.94;5080695;28;20024;-67
2023/05/27 07:58:42;;;;;;;10.57;3.00;;;;;;;19.69;53.89;102539.97;5081487;28;20058;-66
2023/05/27 08:01:07;;;;;;;12.05;3.05;;;;;;;19.54;52.89;102533.09;5081899;28;20051;-66
2023/05/27 08:03:33;;;;;;;14.35;3.60;;;;;;;19.35;51.15;102534.84;5064943;28;20058;-67
2023/05/27 08:05:58;;;;;;;12.60;3.17;;;;;;;19.45;49.95;102537.97;5081411;28;20421;-67
2023/05/27 08:08:24;;;;;;;9.73;2.83;;;;;;;19.07;49.09;102530.50;5099728;28;20036;-66
2023/05/27 08:10:51;;;;;;;10.98;3.10;;;;;;;19.27;49.71;102537.81;5081797;28;20016;-66
2023/05/27 08:13:16;;;;;;;13.70;3.95;;;;;;;19.22;49.10;102542.03;5098392;28;20383;-71
2023/05/27 08:15:42;;;;;;;13.05;3.22;;;;;;;19.38;49.36;102529.78;5080618;28;20127;-66
2023/05/27 08:18:07;;;;;;;15.48;3.60;;;;;;;19.88;49.11;102553.75;5080872;28;20081;-67
2023/05/27 08:20:33;;;;;;;14.88;3.47;;;;;;;19.69;49.55;102539.13;5080824;28;20552;-67
2023/05/27 08:22:58;;;;;;;12.65;3.38;;;;;;;19.51;49.88;102533.53;5080290;28;20398;-71
2023/05/27 08:25:24;;;;;;;18.38;4.28;;;;;;;19.35;51.38;102532.94;5083143;28;20032;-67
2023/05/27 08:27:57;;;;;;;11.00;3.85;;;;;;;19.23;51.92;102535.50;5100350;28;20042;-66
2023/05/27 08:30:22;;;;;;;15.63;3.88;;;;;;;18.63;52.36;102521.13;5100063;28;20020;-71
2023/05/27 08:32:48;;;;;;;13.95;3.92;;;;;;;18.77;53.63;102535.59;5085167;28;20020;-67
2023/05/27 08:35:14;;;;;;;16.77;3.88;;;;;;;18.83;53.40;102523.84;5085074;28;20050;-72
2023/05/27 08:37:40;;;;;;;12.48;3.30;;;;;;;18.78;53.70;102527.22;5098352;28;20020;-66
2023/05/27 08:40:10;;;;;;;13.00;3.90;;;;;;;18.66;53.63;102512.50;5101339;28;20028;-67
2023/05/27 08:42:36;;;;;;;10.82;3.60;;;;;;;18.55;53.17;102502.25;5085406;28;20047;-66
2023/05/27 08:45:03;;;;;;;13.13;3.83;;;;;;;18.68;52.61;102528.69;5085977;28;20059;-70
2023/05/27 08:47:30;;;;;;;14.25;3.67;;;;;;;18.76;52.49;102528.47;5103783;28;20028;-67
2023/05/27 08:49:58;;;;;;;13.55;3.78;;;;;;;18.79;52.33;102533.50;5101623;28;20556;-66
2023/05/27 08:52:26;;;;;;;13.85;3.70;;;;;;;19.01;51.94;102521.31;5101871;28;20039;-68
2023/05/27 08:54:52;;;;;;;16.70;3.90;;;;;;;18.94;51.89;102531.41;5082677;28;20024;-67
2023/05/27 08:57:24;;;;;;;13.70;3.97;;;;;;;19.06;52.20;102519.81;5101735;28;20020;-66
2023/05/27 08:59:51;;;;;;;12.35;3.17;;;;;;;19.27;52.31;102524.16;5103124;28;20107;-67
2023/05/27 09:02:18;;;;;;;16.05;4.05;;;;;;;19.78;51.62;102528.81;5082637;28;20857;-66
2023/05/27 09:04:45;;;;;;;14.25;3.67;;;;;;;19.96;50.93;102517.97;5082850;28;20325;-67
2023/05/27 09:07:11;;;;;;;13.68;3.67;;;;;;;20.18;50.59;102515.72;5082939;28;20407;-72
2023/05/27 09:09:36;;;;;;;12.45;3.30;;;;;;;20.27;50.56;102524.50;5084631;28;20029;-67
2023/05/27 09:12:03;;;;;;;13.48;3.70;;;;;;;20.32;50.70;102521.91;5082906;28;20040;-71
2023/05/27 09:14:29;;;;;;;15.00;3.70;;;;;;;20.37;50.28;102520.19;5083774;28;20397;-69
2023/05/27 09:16:55;;;;;;;9.20;3.05;;;;;;;19.95;48.99;102513.56;5082256;28;20028;-66
2023/05/27 09:19:21;;;;;;;16.80;4.40;;;;;;;19.90;50.04;102518.84;5081676;28;20038;-67
2023/05/27 09:21:56;;;;;;;14.43;3.47;;;;;;;19.74;50.02;102505.72;5081442;28;20025;-67
2023/05/27 09:24:25;;;;;;;12.07;4.13;;;;;;;19.62;50.76;102503.63;5079769;28;20063;-67
2023/05/27 09:26:51;;;;;;;13.52;3.78;;;;;;;19.39;51.38;102493.25;5080694;28;20093;-65
2023/05/27 09:29:27;;;;;;;13.70;3.72;;;;;;;19.74;51.79;102508.47;5079841;28;20146;-66
2023/05/27 09:31:56;;;;;;;15.25;3.70;;;;;;;19.65;51.59;102516.06;5079399;28;20415;-66
2023/05/27 09:34:21;;;;;;;14.55;4.03;;;;;;;19.45;52.01;102499.75;5081020;28;20099;-66
2023/05/27 09:36:51;;;;;;;14.65;4.43;;;;;;;19.70;52.09;102491.66;5079437;28;20059;-73
2023/05/27 09:39:18;;;;;;;14.02;3.70;;;;;;;20.16;51.08;102513.22;5075746;28;20525;-66
2023/05/27 09:41:49;;;;;;;16.58;4.40;;;;;;;20.12;50.85;102494.75;5080738;28;20033;-66
2023/05/27 09:44:15;;;;;;;15.07;4.00;;;;;;;20.09;51.33;102495.19;5082130;28;20047;-66
2023/05/27 09:46:44;;;;;;;15.15;3.80;;;;;;;19.82;51.10;102494.53;5080976;28;20395;-66
2023/05/27 09:49:10;;;;;;;13.32;3.90;;;;;;;19.75;51.05;102489.09;5080169;28;20070;-66
2023/05/27 09:51:39;;;;;;;13.90;3.60;;;;;;;19.80;51.12;102496.63;5078604;28;20032;-66
2023/05/27 09:54:06;;;;;;;16.90;4.13;;;;;;;20.07;51.50;102500.06;5079780;28;20063;-66
2023/05/27 09:56:31;;;;;;;15.57;4.38;;;;;;;20.52;50.99;102500.75;5081415;28;20067;-65
2023/05/27 09:58:58;;;;;;;16.55;4.75;;;;;;;20.75;50.57;102505.56;5079314;28;20040;-66
2023/05/27 10:01:29;;;;;;;16.77;4.18;;;;;;;20.43;50.00;102488.41;5080773;28;20076;-67
2023/05/27 10:03:56;;;;;;;12.95;3.92;;;;;;;20.16;50.27;102494.09;5080238;28;20036;-66
2023/05/27 10:06:24;;;;;;;18.52;4.97;;;;;;;20.04;50.41;102484.09;5078292;28;20089;-65
2023/05/27 10:08:52;;;;;;;14.23;4.45;;;;;;;19.98;51.03;102488.53;5084344;28;20024;-66
2023/05/27 10:11:18;;;;;;;16.58;4.30;;;;;;;20.24;50.98;102492.97;5078777;28;20051;-66
2023/05/27 10:13:45;;;;;;;14.27;3.47;;;;;;;20.36;50.78;102485.72;5075995;28;20028;-65
2023/05/27 10:16:20;;;;;;;16.45;4.03;;;;;;;20.52;50.39;102487.06;5077672;28;20043;-65
2023/05/27 10:18:52;;;;;;;15.98;3.90;;;;;;;20.53;50.66;102476.97;5079860;28;20146;-67
2023/05/27 10:21:20;;;;;;;13.60;4.45;;;;;;;20.60;50.27;102462.19;5080042;28;20116;-65
2023/05/27 10:23:58;;;;;;;18.77;4.43;;;;;;;20.65;49.75;102478.72;5079113;28;20055;-66
2023/05/27 10:26:38;;;;;;;16.70;4.38;;;;;;;20.67;49.80;102475.78;5077814;28;20124;-65
2023/05/27 10:29:11;;;;;;;13.27;4.03;;;;;;;20.51;50.22;102471.72;5078001;28;20067;-66
2023/05/27 10:31:47;;;;;;;15.90;4.35;;;;;;;20.41;50.75;102461.28;5076530;28;20024;-66
2023/05/27 10:34:13;;;;;;;22.85;5.32;;;;;;;20.48;50.72;102466.69;5079808;28;20059;-66
2023/05/27 10:36:39;;;;;;;19.20;5.47;;;;;;;20.39;50.94;102463.38;5077300;28;20032;-66
2023/05/27 10:39:06;;;;;;;19.42;4.68;;;;;;;20.01;51.44;102459.94;5076657;28;20036;-65
2023/05/27 10:41:58;;;;;;;18.52;4.47;;;;;;;20.04;51.09;102454.88;5077666;28;20024;-66
2023/05/27 10:44:34;;;;;;;15.38;4.00;;;;;;;20.06;51.77;102447.25;5076197;28;20450;-65
2023/05/27 10:47:11;;;;;;;12.70;3.70;;;;;;;20.16;51.65;102457.69;5078577;28;20032;-66
2023/05/27 10:49:39;;;;;;;18.38;4.15;;;;;;;20.23;51.57;102468.56;5079286;28;20082;-66
2023/05/27 10:52:13;;;;;;;16.13;4.53;;;;;;;20.25;51.01;102461.00;5077369;28;20115;-64
2023/05/27 10:54:40;;;;;;;15.45;4.15;;;;;;;20.30;50.52;102464.75;5075604;28;20128;-67
2023/05/27 10:57:07;;;;;;;16.67;3.88;;;;;;;20.38;51.08;102461.72;5058101;28;20025;-67
2023/05/27 10:59:50;;;;;;;16.50;3.88;;;;;;;20.39;50.88;102451.63;5073107;28;20028;-66
2023/05/27 11:02:17;;;;;;;14.77;3.83;;;;;;;20.21;51.00;102444.22;5075685;28;20136;-75
2023/05/27 11:04:42;;;;;;;15.75;4.22;;;;;;;20.37;51.57;102445.56;5080669;28;20028;-66
2023/05/27 11:07:08;;;;;;;13.93;3.80;;;;;;;20.59;51.86;102455.00;5075589;28;20487;-69
2023/05/27 11:09:50;;;;;;;15.25;3.88;;;;;;;20.60;50.94;102453.97;5076032;28;20032;-67
2023/05/27 11:12:16;;;;;;;17.35;4.22;;;;;;;20.38;51.49;102461.72;5076926;28;20368;-66
2023/05/27 11:14:43;;;;;;;15.60;3.88;;;;;;;20.19;50.97;102452.63;5076754;28;20432;-66
2023/05/27 11:17:12;;;;;;;16.42;4.60;;;;;;;20.35;50.84;102456.69;5075187;28;20509;-66